sensor_id;sensor_type;location;lat;lon;timestamp;pressure;altitude;pressure_sealevel;temperature;humidity
64698;BME280;51124;53.394;-6.294;2023-06-22T00:01:54;101178.02;;;26.07;11.37
64698;BME280;51124;53.394;-6.294;2023-06-22T00:04:28;101174.56;;;26.47;11.29
64698;BME280;51124;53.394;-6.294;2023-06-22T00:07:06;101175.52;;;26.12;11.37
64698;BME280;51124;53.394;-6.294;2023-06-22T00:09:34;101173.53;;;26.94;11.29
64698;BME280;51124;53.394;-6.294;2023-06-22T00:12:01;101175.34;;;26.25;11.25
64698;BME280;51124;53.394;-6.294;2023-06-22T00:14:29;101176.04;;;26.36;11.28
64698;BME280;51124;53.394;-6.294;2023-06-22T00:16:56;101175.82;;;26.29;11.21
64698;BME280;51124;53.394;-6.294;2023-06-22T00:19:24;101178.38;;;26.40;11.29
64698;BME280;51124;53.394;-6.294;2023-06-22T00:21:52;101180.28;;;25.94;11.29
64698;BME280;51124;53.394;-6.294;2023-06-22T00:24:19;101182.34;;;26.13;11.13
64698;BME280;51124;53.394;-6.294;2023-06-22T00:26:47;101181.88;;;26.06;11.20
64698;BME280;51124;53.394;-6.294;2023-06-22T00:29:15;101185.82;;;26.27;11.31
64698;BME280;51124;53.394;-6.294;2023-06-22T00:31:43;101184.09;;;26.69;11.20
64698;BME280;51124;53.394;-6.294;2023-06-22T00:34:10;101186.34;;;26.30;11.06
64698;BME280;51124;53.394;-6.294;2023-06-22T00:36:38;101188.39;;;26.25;11.34
64698;BME280;51124;53.394;-6.294;2023-06-22T00:39:05;101186.07;;;26.79;11.18
64698;BME280;51124;53.394;-6.294;2023-06-22T00:41:33;101188.26;;;26.23;11.31
64698;BME280;51124;53.394;-6.294;2023-06-22T00:44:01;101187.62;;;25.76;11.26
64698;BME280;51124;53.394;-6.294;2023-06-22T00:46:28;101191.02;;;25.90;11.31
64698;BME280;51124;53.394;-6.294;2023-06-22T00:48:56;101192.14;;;26.92;11.17
64698;BME280;51124;53.394;-6.294;2023-06-22T00:51:24;101195.40;;;26.00;11.41
64698;BME280;51124;53.394;-6.294;2023-06-22T00:53:51;101203.09;;;26.22;11.22
64698;BME280;51124;53.394;-6.294;2023-06-22T00:56:19;101206.32;;;26.12;11.24
64698;BME280;51124;53.394;-6.294;2023-06-22T00:58:46;101205.99;;;25.65;11.35
64698;BME280;51124;53.394;-6.294;2023-06-22T01:01:14;101208.81;;;26.25;11.39
64698;BME280;51124;53.394;-6.294;2023-06-22T01:03:41;101213.73;;;26.34;11.19
64698;BME280;51124;53.394;-6.294;2023-06-22T01:06:14;101213.39;;;25.69;11.27
64698;BME280;51124;53.394;-6.294;2023-06-22T01:08:46;101216.92;;;26.76;11.10
64698;BME280;51124;53.394;-6.294;2023-06-22T01:11:21;101215.73;;;26.98;11.12
64698;BME280;51124;53.394;-6.294;2023-06-22T01:13:56;101215.87;;;26.17;11.14
64698;BME280;51124;53.394;-6.294;2023-06-22T01:16:29;101217.30;;;25.77;11.32
64698;BME280;51124;53.394;-6.294;2023-06-22T01:19:00;101222.02;;;26.89;11.12
64698;BME280;51124;53.394;-6.294;2023-06-22T01:21:31;101221.22;;;26.53;11.10
64698;BME280;51124;53.394;-6.294;2023-06-22T01:24:16;101215.49;;;25.57;11.34
64698;BME280;51124;53.394;-6.294;2023-06-22T01:26:37;101218.04;;;26.20;11.25
64698;BME280;51124;53.394;-6.294;2023-06-22T01:28:57;101219.88;;;26.43;11.43
64698;BME280;51124;53.394;-6.294;2023-06-22T01:31:27;101219.54;;;26.21;11.41
64698;BME280;51124;53.394;-6.294;2023-06-22T01:33:58;101219.91;;;26.19;11.29
64698;BME280;51124;53.394;-6.294;2023-06-22T01:36:27;101220.82;;;26.30;11.22
64698;BME280;51124;53.394;-6.294;2023-06-22T01:38:57;101222.14;;;26.25;11.40
64698;BME280;51124;53.394;-6.294;2023-06-22T01:41:28;101226.99;;;26.20;11.36
64698;BME280;51124;53.394;-6.294;2023-06-22T01:43:57;101232.09;;;26.55;11.30
64698;BME280;51124;53.394;-6.294;2023-06-22T01:46:26;101228.68;;;25.78;11.39
64698;BME280;51124;53.394;-6.294;2023-06-22T01:48:55;101228.11;;;26.65;11.26
64698;BME280;51124;53.394;-6.294;2023-06-22T01:51:23;101229.52;;;26.52;11.23
64698;BME280;51124;53.394;-6.294;2023-06-22T01:53:50;101228.56;;;25.66;11.14
64698;BME280;51124;53.394;-6.294;2023-06-22T01:56:19;101232.33;;;26.00;11.34
64698;BME280;51124;53.394;-6.294;2023-06-22T01:58:50;101236.40;;;25.86;11.31
64698;BME280;51124;53.394;-6.294;2023-06-22T02:01:22;101238.41;;;26.19;11.36
64698;BME280;51124;53.394;-6.294;2023-06-22T02:03:57;101239.40;;;25.56;11.28
64698;BME280;51124;53.394;-6.294;2023-06-22T02:06:21;101245.60;;;25.99;11.31
64698;BME280;51124;53.394;-6.294;2023-06-22T02:08:53;101245.80;;;25.72;11.34
64698;BME280;51124;53.394;-6.294;2023-06-22T02:11:23;101245.60;;;26.44;11.28
64698;BME280;51124;53.394;-6.294;2023-06-22T02:13:53;101247.08;;;25.92;11.25
64698;BME280;51124;53.394;-6.294;2023-06-22T02:16:21;101250.48;;;25.57;11.23
64698;BME280;51124;53.394;-6.294;2023-06-22T02:18:49;101250.00;;;25.83;11.36
64698;BME280;51124;53.394;-6.294;2023-06-22T02:21:17;101250.35;;;25.52;11.28
64698;BME280;51124;53.394;-6.294;2023-06-22T02:23:45;101251.64;;;26.30;11.24
64698;BME280;51124;53.394;-6.294;2023-06-22T02:26:12;101250.96;;;26.29;11.30
64698;BME280;51124;53.394;-6.294;2023-06-22T02:28:40;101253.46;;;26.04;11.18
64698;BME280;51124;53.394;-6.294;2023-06-22T02:31:08;101253.19;;;25.39;11.41
64698;BME280;51124;53.394;-6.294;2023-06-22T02:33:35;101255.56;;;26.26;11.42
64698;BME280;51124;53.394;-6.294;2023-06-22T02:36:03;101264.04;;;25.98;11.25
64698;BME280;51124;53.394;-6.294;2023-06-22T02:38:31;101265.02;;;26.18;11.25
64698;BME280;51124;53.394;-6.294;2023-06-22T02:40:58;101262.37;;;25.60;11.41
64698;BME280;51124;53.394;-6.294;2023-06-22T02:43:26;101261.08;;;25.79;11.52
64698;BME280;51124;53.394;-6.294;2023-06-22T02:45:53;101260.74;;;26.12;11.41
64698;BME280;51124;53.394;-6.294;2023-06-22T02:48:21;101258.72;;;25.62;11.34
64698;BME280;51124;53.394;-6.294;2023-06-22T02:50:48;101258.87;;;26.42;11.28
64698;BME280;51124;53.394;-6.294;2023-06-22T02:53:16;101261.40;;;26.34;11.27
64698;BME280;51124;53.394;-6.294;2023-06-22T02:55:44;101263.96;;;26.29;11.36
64698;BME280;51124;53.394;-6.294;2023-06-22T02:58:11;101269.28;;;25.67;11.42
64698;BME280;51124;53.394;-6.294;2023-06-22T03:00:39;101271.53;;;25.85;11.35
64698;BME280;51124;53.394;-6.294;2023-06-22T03:03:06;101274.77;;;26.11;11.30
64698;BME280;51124;53.394;-6.294;2023-06-22T03:05:34;101273.77;;;26.28;11.34
64698;BME280;51124;53.394;-6.294;2023-06-22T03:08:01;101269.36;;;26.03;11.31
64698;BME280;51124;53.394;-6.294;2023-06-22T03:10:28;101269.32;;;26.24;11.19
64698;BME280;51124;53.394;-6.294;2023-06-22T03:12:57;101272.52;;;24.98;11.47
64698;BME280;51124;53.394;-6.294;2023-06-22T03:15:24;101272.80;;;25.95;11.34
64698;BME280;51124;53.394;-6.294;2023-06-22T03:17:52;101276.47;;;26.28;11.29
64698;BME280;51124;53.394;-6.294;2023-06-22T03:20:19;101276.40;;;25.76;11.39
64698;BME280;51124;53.394;-6.294;2023-06-22T03:22:47;101273.05;;;26.14;11.26
64698;BME280;51124;53.394;-6.294;2023-06-22T03:25:14;101272.13;;;26.49;11.28
64698;BME280;51124;53.394;-6.294;2023-06-22T03:27:42;101268.70;;;26.20;11.30
64698;BME280;51124;53.394;-6.294;2023-06-22T03:30:11;101268.86;;;26.42;11.23
64698;BME280;51124;53.394;-6.294;2023-06-22T03:32:39;101268.86;;;26.21;11.24
64698;BME280;51124;53.394;-6.294;2023-06-22T03:35:07;101268.74;;;26.09;11.35
64698;BME280;51124;53.394;-6.294;2023-06-22T03:37:35;101271.55;;;26.39;11.33
64698;BME280;51124;53.394;-6.294;2023-06-22T03:40:03;101268.38;;;25.75;11.38
64698;BME280;51124;53.394;-6.294;2023-06-22T03:42:30;101266.92;;;25.77;11.38
64698;BME280;51124;53.394;-6.294;2023-06-22T03:44:57;101266.92;;;26.48;11.17
64698;BME280;51124;53.394;-6.294;2023-06-22T03:47:25;101268.91;;;26.59;11.23
64698;BME280;51124;53.394;-6.294;2023-06-22T03:49:52;101270.15;;;25.75;11.34
64698;BME280;51124;53.394;-6.294;2023-06-22T03:52:20;101271.54;;;25.23;11.50
64698;BME280;51124;53.394;-6.294;2023-06-22T03:54:47;101271.05;;;25.88;11.38
64698;BME280;51124;53.394;-6.294;2023-06-22T03:57:15;101271.57;;;26.29;11.36
64698;BME280;51124;53.394;-6.294;2023-06-22T03:59:42;101273.66;;;25.99;11.30
64698;BME280;51124;53.394;-6.294;2023-06-22T04:02:09;101274.85;;;25.94;11.30
64698;BME280;51124;53.394;-6.294;2023-06-22T04:04:37;101276.53;;;26.42;11.33
64698;BME280;51124;53.394;-6.294;2023-06-22T04:07:05;101279.51;;;25.93;11.36
64698;BME280;51124;53.394;-6.294;2023-06-22T04:09:32;101282.42;;;25.94;11.34
64698;BME280;51124;53.394;-6.294;2023-06-22T04:12:00;101286.53;;;26.15;11.36
64698;BME280;51124;53.394;-6.294;2023-06-22T04:14:28;101288.53;;;25.98;11.36
64698;BME280;51124;53.394;-6.294;2023-06-22T04:16:55;101292.20;;;26.02;11.39
64698;BME280;51124;53.394;-6.294;2023-06-22T04:19:23;101294.02;;;25.85;11.47
64698;BME280;51124;53.394;-6.294;2023-06-22T04:21:50;101295.47;;;25.88;11.28
64698;BME280;51124;53.394;-6.294;2023-06-22T04:24:18;101298.52;;;26.33;11.22
64698;BME280;51124;53.394;-6.294;2023-06-22T04:26:46;101296.86;;;26.64;11.34
64698;BME280;51124;53.394;-6.294;2023-06-22T04:29:13;101300.64;;;26.11;11.49
64698;BME280;51124;53.394;-6.294;2023-06-22T04:31:41;101303.20;;;25.64;11.32
64698;BME280;51124;53.394;-6.294;2023-06-22T04:34:09;101306.15;;;25.81;11.44
64698;BME280;51124;53.394;-6.294;2023-06-22T04:36:37;101305.93;;;25.75;11.43
64698;BME280;51124;53.394;-6.294;2023-06-22T04:39:07;101307.09;;;26.19;11.37
64698;BME280;51124;53.394;-6.294;2023-06-22T04:41:35;101307.22;;;26.01;11.48
64698;BME280;51124;53.394;-6.294;2023-06-22T04:44:03;101310.27;;;25.95;11.35
64698;BME280;51124;53.394;-6.294;2023-06-22T04:46:31;101309.86;;;25.90;11.39
64698;BME280;51124;53.394;-6.294;2023-06-22T04:48:58;101309.02;;;25.69;11.41
64698;BME280;51124;53.394;-6.294;2023-06-22T04:51:26;101308.40;;;25.95;11.40
64698;BME280;51124;53.394;-6.294;2023-06-22T04:53:53;101305.80;;;25.97;11.35
64698;BME280;51124;53.394;-6.294;2023-06-22T04:56:21;101308.46;;;26.41;11.38
64698;BME280;51124;53.394;-6.294;2023-06-22T04:58:48;101310.42;;;25.91;11.50
64698;BME280;51124;53.394;-6.294;2023-06-22T05:01:15;101311.98;;;25.75;11.51
64698;BME280;51124;53.394;-6.294;2023-06-22T05:03:43;101309.32;;;26.29;11.32
64698;BME280;51124;53.394;-6.294;2023-06-22T05:06:10;101311.75;;;26.14;11.38
64698;BME280;51124;53.394;-6.294;2023-06-22T05:08:38;101311.18;;;26.23;11.33
64698;BME280;51124;53.394;-6.294;2023-06-22T05:11:05;101310.83;;;26.10;11.30
64698;BME280;51124;53.394;-6.294;2023-06-22T05:13:33;101309.22;;;25.68;11.48
64698;BME280;51124;53.394;-6.294;2023-06-22T05:16:01;101305.44;;;25.70;11.34
64698;BME280;51124;53.394;-6.294;2023-06-22T05:18:28;101309.19;;;25.91;11.40
64698;BME280;51124;53.394;-6.294;2023-06-22T05:20:56;101316.15;;;25.94;11.38
64698;BME280;51124;53.394;-6.294;2023-06-22T05:23:24;101320.09;;;26.35;11.37
64698;BME280;51124;53.394;-6.294;2023-06-22T05:25:52;101323.75;;;26.30;11.37
64698;BME280;51124;53.394;-6.294;2023-06-22T05:28:20;101326.67;;;25.52;11.33
64698;BME280;51124;53.394;-6.294;2023-06-22T05:30:47;101327.10;;;26.30;11.46
64698;BME280;51124;53.394;-6.294;2023-06-22T05:33:15;101326.26;;;26.42;11.40
64698;BME280;51124;53.394;-6.294;2023-06-22T05:35:43;101327.85;;;25.53;11.40
64698;BME280;51124;53.394;-6.294;2023-06-22T05:38:10;101322.93;;;25.85;11.46
64698;BME280;51124;53.394;-6.294;2023-06-22T05:40:38;101320.98;;;25.86;11.37
64698;BME280;51124;53.394;-6.294;2023-06-22T05:43:05;101323.90;;;26.18;11.42
64698;BME280;51124;53.394;-6.294;2023-06-22T05:45:33;101323.84;;;25.76;11.46
64698;BME280;51124;53.394;-6.294;2023-06-22T05:48:00;101323.23;;;26.22;11.18
64698;BME280;51124;53.394;-6.294;2023-06-22T05:50:27;101321.78;;;25.81;11.46
64698;BME280;51124;53.394;-6.294;2023-06-22T05:52:55;101326.43;;;26.33;11.26
64698;BME280;51124;53.394;-6.294;2023-06-22T05:55:22;101324.01;;;25.75;11.38
64698;BME280;51124;53.394;-6.294;2023-06-22T05:57:50;101320.90;;;25.56;11.39
64698;BME280;51124;53.394;-6.294;2023-06-22T06:00:18;101317.13;;;26.26;11.45
64698;BME280;51124;53.394;-6.294;2023-06-22T06:02:44;101317.87;;;25.55;11.40
64698;BME280;51124;53.394;-6.294;2023-06-22T06:05:10;101321.99;;;26.20;11.22
64698;BME280;51124;53.394;-6.294;2023-06-22T06:07:35;101324.43;;;25.88;11.32
64698;BME280;51124;53.394;-6.294;2023-06-22T06:10:01;101326.37;;;25.85;11.48
64698;BME280;51124;53.394;-6.294;2023-06-22T06:12:26;101329.38;;;25.93;11.32
64698;BME280;51124;53.394;-6.294;2023-06-22T06:14:52;101330.14;;;25.77;11.41
64698;BME280;51124;53.394;-6.294;2023-06-22T06:17:17;101330.60;;;26.00;11.40
64698;BME280;51124;53.394;-6.294;2023-06-22T06:19:42;101329.80;;;25.76;11.52
64698;BME280;51124;53.394;-6.294;2023-06-22T06:22:10;101328.20;;;25.89;11.15
64698;BME280;51124;53.394;-6.294;2023-06-22T06:24:37;101328.57;;;26.24;11.38
64698;BME280;51124;53.394;-6.294;2023-06-22T06:27:05;101329.14;;;26.14;11.38
64698;BME280;51124;53.394;-6.294;2023-06-22T06:29:33;101330.34;;;25.83;11.46
64698;BME280;51124;53.394;-6.294;2023-06-22T06:32:00;101330.16;;;25.73;11.37
64698;BME280;51124;53.394;-6.294;2023-06-22T06:34:25;101331.05;;;25.47;11.50
64698;BME280;51124;53.394;-6.294;2023-06-22T06:36:51;101327.36;;;26.29;11.34
64698;BME280;51124;53.394;-6.294;2023-06-22T06:39:16;101330.15;;;25.75;11.47
64698;BME280;51124;53.394;-6.294;2023-06-22T06:41:42;101332.04;;;26.43;11.41
64698;BME280;51124;53.394;-6.294;2023-06-22T06:44:07;101334.44;;;25.64;11.43
64698;BME280;51124;53.394;-6.294;2023-06-22T06:46:31;101336.60;;;25.98;11.59
64698;BME280;51124;53.394;-6.294;2023-06-22T06:49:04;101339.90;;;26.08;11.61
64698;BME280;51124;53.394;-6.294;2023-06-22T06:51:38;101343.08;;;25.92;11.47
64698;BME280;51124;53.394;-6.294;2023-06-22T06:54:11;101348.84;;;25.49;11.95
64698;BME280;51124;53.394;-6.294;2023-06-22T06:56:45;101342.60;;;25.81;11.81
64698;BME280;51124;53.394;-6.294;2023-06-22T06:59:18;101346.36;;;25.84;12.06
64698;BME280;51124;53.394;-6.294;2023-06-22T07:01:52;101345.84;;;25.18;11.97
64698;BME280;51124;53.394;-6.294;2023-06-22T07:04:30;101347.22;;;25.17;11.83
64698;BME280;51124;53.394;-6.294;2023-06-22T07:06:58;101349.82;;;24.85;11.99
64698;BME280;51124;53.394;-6.294;2023-06-22T07:09:26;101348.49;;;25.15;12.14
64698;BME280;51124;53.394;-6.294;2023-06-22T07:11:54;101348.93;;;25.89;11.87
64698;BME280;51124;53.394;-6.294;2023-06-22T07:14:21;101350.41;;;25.63;11.86
64698;BME280;51124;53.394;-6.294;2023-06-22T07:16:48;101349.08;;;26.11;11.78
64698;BME280;51124;53.394;-6.294;2023-06-22T07:19:16;101348.23;;;26.35;11.71
64698;BME280;51124;53.394;-6.294;2023-06-22T07:21:50;101350.40;;;25.72;11.62
64698;BME280;51124;53.394;-6.294;2023-06-22T07:24:18;101348.06;;;26.15;11.60
64698;BME280;51124;53.394;-6.294;2023-06-22T07:26:45;101345.85;;;26.15;11.53
64698;BME280;51124;53.394;-6.294;2023-06-22T07:29:13;101345.35;;;26.37;11.52
64698;BME280;51124;53.394;-6.294;2023-06-22T07:31:40;101346.41;;;25.91;11.71
64698;BME280;51124;53.394;-6.294;2023-06-22T07:34:08;101351.87;;;25.99;11.55
64698;BME280;51124;53.394;-6.294;2023-06-22T07:36:36;101351.89;;;26.27;11.54
64698;BME280;51124;53.394;-6.294;2023-06-22T07:39:03;101357.77;;;26.22;11.53
64698;BME280;51124;53.394;-6.294;2023-06-22T07:41:31;101358.73;;;25.80;11.58
64698;BME280;51124;53.394;-6.294;2023-06-22T07:43:58;101359.40;;;25.91;11.65
64698;BME280;51124;53.394;-6.294;2023-06-22T07:46:26;101359.49;;;26.27;11.52
64698;BME280;51124;53.394;-6.294;2023-06-22T07:48:54;101361.47;;;26.37;11.50
64698;BME280;51124;53.394;-6.294;2023-06-22T07:51:21;101367.38;;;26.09;11.61
64698;BME280;51124;53.394;-6.294;2023-06-22T07:53:48;101372.09;;;26.24;11.48
64698;BME280;51124;53.394;-6.294;2023-06-22T07:56:16;101363.71;;;25.76;11.61
64698;BME280;51124;53.394;-6.294;2023-06-22T07:58:44;101366.89;;;25.28;11.97
64698;BME280;51124;53.394;-6.294;2023-06-22T08:01:12;101363.41;;;25.76;12.13
64698;BME280;51124;53.394;-6.294;2023-06-22T08:03:39;101358.53;;;25.46;11.99
64698;BME280;51124;53.394;-6.294;2023-06-22T08:06:07;101360.06;;;25.41;12.19
64698;BME280;51124;53.394;-6.294;2023-06-22T08:08:35;101365.05;;;25.62;12.41
64698;BME280;51124;53.394;-6.294;2023-06-22T08:11:03;101367.98;;;25.41;12.21
64698;BME280;51124;53.394;-6.294;2023-06-22T08:13:26;101370.01;;;24.46;12.44
64698;BME280;51124;53.394;-6.294;2023-06-22T08:16:00;101368.56;;;25.75;12.24
64698;BME280;51124;53.394;-6.294;2023-06-22T08:18:33;101367.59;;;25.27;12.24
64698;BME280;51124;53.394;-6.294;2023-06-22T08:21:07;101364.82;;;25.41;12.05
64698;BME280;51124;53.394;-6.294;2023-06-22T08:23:41;101366.78;;;25.63;12.05
64698;BME280;51124;53.394;-6.294;2023-06-22T08:26:14;101367.52;;;25.24;12.00
64698;BME280;51124;53.394;-6.294;2023-06-22T08:28:48;101370.65;;;26.26;11.91
64698;BME280;51124;53.394;-6.294;2023-06-22T08:31:22;101374.68;;;26.29;11.93
64698;BME280;51124;53.394;-6.294;2023-06-22T08:33:55;101373.52;;;24.31;12.18
64698;BME280;51124;53.394;-6.294;2023-06-22T08:36:28;101368.82;;;24.99;12.05
64698;BME280;51124;53.394;-6.294;2023-06-22T08:39:02;101371.99;;;25.50;12.01
64698;BME280;51124;53.394;-6.294;2023-06-22T08:41:36;101374.49;;;25.33;12.05
64698;BME280;51124;53.394;-6.294;2023-06-22T08:44:10;101375.68;;;26.28;11.73
64698;BME280;51124;53.394;-6.294;2023-06-22T08:46:43;101376.09;;;25.30;12.08
64698;BME280;51124;53.394;-6.294;2023-06-22T08:49:17;101376.24;;;25.55;11.84
64698;BME280;51124;53.394;-6.294;2023-06-22T08:51:51;101376.63;;;26.11;11.95
64698;BME280;51124;53.394;-6.294;2023-06-22T08:54:24;101375.67;;;26.06;11.61
64698;BME280;51124;53.394;-6.294;2023-06-22T08:56:58;101372.87;;;25.98;11.64
64698;BME280;51124;53.394;-6.294;2023-06-22T08:59:32;101374.42;;;26.08;11.57
64698;BME280;51124;53.394;-6.294;2023-06-22T09:02:05;101376.47;;;26.00;11.58
64698;BME280;51124;53.394;-6.294;2023-06-22T09:04:39;101372.73;;;26.58;11.50
64698;BME280;51124;53.394;-6.294;2023-06-22T09:07:13;101373.72;;;26.35;11.62
64698;BME280;51124;53.394;-6.294;2023-06-22T09:09:46;101378.38;;;25.57;11.62
64698;BME280;51124;53.394;-6.294;2023-06-22T09:12:20;101383.14;;;26.49;11.54
64698;BME280;51124;53.394;-6.294;2023-06-22T09:14:54;101386.00;;;25.96;11.49
64698;BME280;51124;53.394;-6.294;2023-06-22T09:17:27;101385.39;;;25.61;11.42
64698;BME280;51124;53.394;-6.294;2023-06-22T09:20:02;101385.79;;;25.80;11.40
64698;BME280;51124;53.394;-6.294;2023-06-22T09:22:35;101387.21;;;25.48;11.28
64698;BME280;51124;53.394;-6.294;2023-06-22T09:25:09;101386.51;;;25.96;11.35
64698;BME280;51124;53.394;-6.294;2023-06-22T09:27:43;101386.78;;;25.81;11.32
64698;BME280;51124;53.394;-6.294;2023-06-22T09:30:16;101383.54;;;25.57;11.33
64698;BME280;51124;53.394;-6.294;2023-06-22T09:32:50;101382.15;;;26.12;11.40
64698;BME280;51124;53.394;-6.294;2023-06-22T09:35:23;101379.16;;;25.60;11.39
64698;BME280;51124;53.394;-6.294;2023-06-22T09:37:56;101374.90;;;25.64;11.36
64698;BME280;51124;53.394;-6.294;2023-06-22T09:40:31;101372.98;;;26.13;11.48
64698;BME280;51124;53.394;-6.294;2023-06-22T09:43:04;101370.03;;;25.26;11.63
64698;BME280;51124;53.394;-6.294;2023-06-22T09:45:37;101364.58;;;26.20;11.42
64698;BME280;51124;53.394;-6.294;2023-06-22T09:48:11;101362.79;;;26.56;11.45
64698;BME280;51124;53.394;-6.294;2023-06-22T09:50:45;101365.66;;;25.93;11.60
64698;BME280;51124;53.394;-6.294;2023-06-22T09:53:18;101371.30;;;25.46;11.70
64698;BME280;51124;53.394;-6.294;2023-06-22T09:55:52;101371.12;;;26.21;11.73
64698;BME280;51124;53.394;-6.294;2023-06-22T09:58:26;101368.15;;;25.69;11.74
64698;BME280;51124;53.394;-6.294;2023-06-22T10:00:59;101372.22;;;25.82;11.85
64698;BME280;51124;53.394;-6.294;2023-06-22T10:03:33;101374.60;;;25.40;11.68
64698;BME280;51124;53.394;-6.294;2023-06-22T10:06:07;101375.08;;;25.17;11.61
64698;BME280;51124;53.394;-6.294;2023-06-22T10:08:40;101372.20;;;26.59;11.41
64698;BME280;51124;53.394;-6.294;2023-06-22T10:11:14;101378.18;;;26.58;11.46
64698;BME280;51124;53.394;-6.294;2023-06-22T10:13:47;101380.40;;;25.09;11.72
64698;BME280;51124;53.394;-6.294;2023-06-22T10:16:21;101375.88;;;26.55;11.44
64698;BME280;51124;53.394;-6.294;2023-06-22T10:18:55;101381.45;;;25.77;11.63
64698;BME280;51124;53.394;-6.294;2023-06-22T10:21:28;101377.40;;;26.44;11.53
64698;BME280;51124;53.394;-6.294;2023-06-22T10:24:02;101380.01;;;25.97;11.49
64698;BME280;51124;53.394;-6.294;2023-06-22T10:26:36;101382.08;;;25.71;11.46
64698;BME280;51124;53.394;-6.294;2023-06-22T10:29:10;101382.70;;;26.53;11.57
64698;BME280;51124;53.394;-6.294;2023-06-22T10:31:44;101381.93;;;26.66;11.61
64698;BME280;51124;53.394;-6.294;2023-06-22T10:34:18;101387.31;;;26.05;11.68
64698;BME280;51124;53.394;-6.294;2023-06-22T10:36:52;101385.26;;;26.40;11.64
64698;BME280;51124;53.394;-6.294;2023-06-22T10:39:25;101385.39;;;26.02;11.44
64698;BME280;51124;53.394;-6.294;2023-06-22T10:41:58;101383.82;;;26.24;11.52
64698;BME280;51124;53.394;-6.294;2023-06-22T10:44:32;101384.13;;;26.62;11.48
64698;BME280;51124;53.394;-6.294;2023-06-22T10:47:06;101381.99;;;25.97;11.41
64698;BME280;51124;53.394;-6.294;2023-06-22T10:49:40;101378.18;;;26.73;11.28
64698;BME280;51124;53.394;-6.294;2023-06-22T10:52:14;101377.62;;;26.09;11.28
64698;BME280;51124;53.394;-6.294;2023-06-22T10:54:47;101380.91;;;26.51;11.27
64698;BME280;51124;53.394;-6.294;2023-06-22T10:57:21;101384.71;;;26.70;11.33
64698;BME280;51124;53.394;-6.294;2023-06-22T10:59:55;101383.83;;;26.19;11.15
64698;BME280;51124;53.394;-6.294;2023-06-22T11:02:29;101387.02;;;26.42;11.27
64698;BME280;51124;53.394;-6.294;2023-06-22T11:05:03;101387.31;;;26.76;11.23
64698;BME280;51124;53.394;-6.294;2023-06-22T11:07:37;101386.63;;;26.08;11.09
64698;BME280;51124;53.394;-6.294;2023-06-22T11:10:11;101386.63;;;27.03;11.15
64698;BME280;51124;53.394;-6.294;2023-06-22T11:12:45;101388.00;;;26.86;10.97
64698;BME280;51124;53.394;-6.294;2023-06-22T11:15:19;101386.42;;;26.80;11.16
64698;BME280;51124;53.394;-6.294;2023-06-22T11:17:52;101385.20;;;26.38;11.22
64698;BME280;51124;53.394;-6.294;2023-06-22T11:20:26;101389.87;;;26.78;11.10
64698;BME280;51124;53.394;-6.294;2023-06-22T11:23:00;101389.03;;;26.34;11.35
64698;BME280;51124;53.394;-6.294;2023-06-22T11:25:33;101394.01;;;25.54;11.31
64698;BME280;51124;53.394;-6.294;2023-06-22T11:28:07;101398.15;;;26.42;11.00
64698;BME280;51124;53.394;-6.294;2023-06-22T11:30:40;101397.60;;;27.03;11.02
64698;BME280;51124;53.394;-6.294;2023-06-22T11:33:14;101397.59;;;27.01;10.83
64698;BME280;51124;53.394;-6.294;2023-06-22T11:35:47;101395.92;;;25.36;11.17
64698;BME280;51124;53.394;-6.294;2023-06-22T11:38:21;101397.69;;;26.80;10.91
64698;BME280;51124;53.394;-6.294;2023-06-22T11:40:55;101391.41;;;26.77;10.77
64698;BME280;51124;53.394;-6.294;2023-06-22T11:43:29;101392.84;;;26.51;10.79
64698;BME280;51124;53.394;-6.294;2023-06-22T11:46:03;101388.91;;;27.22;10.69
64698;BME280;51124;53.394;-6.294;2023-06-22T11:48:37;101396.17;;;27.01;10.67
64698;BME280;51124;53.394;-6.294;2023-06-22T11:51:11;101395.60;;;26.59;10.86
64698;BME280;51124;53.394;-6.294;2023-06-22T11:53:44;101396.74;;;26.79;10.66
64698;BME280;51124;53.394;-6.294;2023-06-22T11:56:18;101393.25;;;27.47;10.51
64698;BME280;51124;53.394;-6.294;2023-06-22T11:58:52;101390.64;;;27.00;10.65
64698;BME280;51124;53.394;-6.294;2023-06-22T12:01:25;101390.02;;;27.21;10.45
64698;BME280;51124;53.394;-6.294;2023-06-22T12:03:59;101392.93;;;26.95;10.49
64698;BME280;51124;53.394;-6.294;2023-06-22T12:06:33;101394.17;;;27.25;10.38
64698;BME280;51124;53.394;-6.294;2023-06-22T12:09:06;101399.24;;;26.97;10.51
64698;BME280;51124;53.394;-6.294;2023-06-22T12:11:40;101395.57;;;27.69;10.33
64698;BME280;51124;53.394;-6.294;2023-06-22T12:14:14;101398.03;;;27.03;10.42
64698;BME280;51124;53.394;-6.294;2023-06-22T12:16:47;101403.49;;;27.03;10.58
64698;BME280;51124;53.394;-6.294;2023-06-22T12:19:21;101405.40;;;27.88;10.43
64698;BME280;51124;53.394;-6.294;2023-06-22T12:21:55;101400.93;;;27.65;10.53
64698;BME280;51124;53.394;-6.294;2023-06-22T12:24:28;101397.58;;;27.61;10.73
64698;BME280;51124;53.394;-6.294;2023-06-22T12:27:02;101400.98;;;27.52;10.71
64698;BME280;51124;53.394;-6.294;2023-06-22T12:29:36;101398.82;;;26.88;10.81
64698;BME280;51124;53.394;-6.294;2023-06-22T12:32:09;101398.56;;;27.98;10.78
64698;BME280;51124;53.394;-6.294;2023-06-22T12:34:44;101400.79;;;26.98;10.74
64698;BME280;51124;53.394;-6.294;2023-06-22T12:37:17;101400.66;;;27.58;10.78
64698;BME280;51124;53.394;-6.294;2023-06-22T12:39:51;101401.36;;;27.93;10.74
64698;BME280;51124;53.394;-6.294;2023-06-22T12:42:24;101405.42;;;27.65;10.73
64698;BME280;51124;53.394;-6.294;2023-06-22T12:44:58;101407.21;;;27.78;10.75
64698;BME280;51124;53.394;-6.294;2023-06-22T12:47:32;101405.46;;;27.53;10.70
64698;BME280;51124;53.394;-6.294;2023-06-22T12:50:06;101403.53;;;27.52;10.62
64698;BME280;51124;53.394;-6.294;2023-06-22T12:52:40;101413.85;;;27.88;10.61
64698;BME280;51124;53.394;-6.294;2023-06-22T12:55:13;101407.54;;;27.69;10.55